Station Historical Data
 
Daily Summary for July 18, 2019 Units:  Both    English   Metric
« Previous Day
Next Day »
Daily Weekly Monthly Yearly Custom
  Current: High: Low: Average:
Temperature: 77.5 °F /  25.3 °C 85.6 °F /  29.8 °C 71.6 °F /  22.0 °C 79 °F /  26.1 °C
Dew Point: 67.8 °F /  19.9 °C 72 °F /  22.2 °C 64.4 °F /  18.0 °C 68 °F /  20 °C
Humidity: 72% 79% 59% 70%
Wind Speed: 6mph /  9.7km/h 8mph /  12.9km/h - 3.1mph /  5km/h
Wind Gust: 12mph /  19.3km/h 16mph /  25.7km/h - -
WindSouth - - South
Pressure: 29.9 in /  1012.1 hPa 29.9 in /  1013.4 hPa 29.9 in /  1011.3 hPa -
Precipitation: 0 in /  0.0 mm      
Historical Graphs
 
 
Tabular Data for July 18, 2019
Time Temperature Dew Point Pressure Wind Wind Speed Wind Gust Humidity Rainfall Rate (Hourly) solar Conditions
00:05 76.3 °F /  24.6 °C 67.3 °F /  19.6 °C 29.9in /  1011.6hPa South 1mph /  1.6km/h 3mph /  4.8km/h 74% 0in /  0.0mm 0.00 W/m2 CLR
00:15 75.9 °F /  24.4 °C 67.1 °F /  19.5 °C 29.9in /  1011.7hPa South 2mph /  3.2km/h 6mph /  9.7km/h 74% 0in /  0.0mm 0.00 W/m2 CLR
00:20 75.9 °F /  24.4 °C 66.9 °F /  19.4 °C 29.9in /  1011.7hPa South 2mph /  3.2km/h 9mph /  14.5km/h 74% 0in /  0.0mm 0.00 W/m2 CLR
00:25 75.9 °F /  24.4 °C 67.5 °F /  19.7 °C 29.9in /  1011.8hPa SSW 2mph /  3.2km/h 5mph /  8.0km/h 75% 0in /  0.0mm 0.00 W/m2 CLR
00:30 75.9 °F /  24.4 °C 67.5 °F /  19.7 °C 29.9in /  1011.9hPa South 1mph /  1.6km/h 6mph /  9.7km/h 75% 0in /  0.0mm 0.00 W/m2 CLR
00:35 75.9 °F /  24.4 °C 67.5 °F /  19.7 °C 29.9in /  1012.0hPa SSE 1mph /  1.6km/h 4mph /  6.4km/h 75% 0in /  0.0mm 0.00 W/m2 CLR
00:40 75.7 °F /  24.3 °C 67.3 °F /  19.6 °C 29.9in /  1012.0hPa SSE 3mph /  4.8km/h 6mph /  9.7km/h 75% 0in /  0.0mm 0.00 W/m2 CLR
00:45 75.7 °F /  24.3 °C 67.3 °F /  19.6 °C 29.9in /  1011.9hPa South 1mph /  1.6km/h 5mph /  8.0km/h 75% 0in /  0.0mm 0.00 W/m2 CLR
00:50 75.7 °F /  24.3 °C 67.3 °F /  19.6 °C 29.9in /  1011.9hPa SSW 1mph /  1.6km/h 4mph /  6.4km/h 75% 0in /  0.0mm 0.00 W/m2 CLR
00:55 75.7 °F /  24.3 °C 67.3 °F /  19.6 °C 29.9in /  1012.0hPa South 2mph /  3.2km/h 4mph /  6.4km/h 75% 0in /  0.0mm 0.00 W/m2 CLR
01:00 75.7 °F /  24.3 °C 67.6 °F /  19.8 °C 29.9in /  1012.0hPa South 3mph /  4.8km/h 6mph /  9.7km/h 76% 0in /  0.0mm 0.00 W/m2 CLR
01:10 75.6 °F /  24.2 °C 67.8 °F /  19.9 °C 29.9in /  1012.0hPa South 2mph /  3.2km/h 6mph /  9.7km/h 77% 0in /  0.0mm 0.00 W/m2 CLR
01:15 75.6 °F /  24.2 °C 67.8 °F /  19.9 °C 29.9in /  1012.0hPa SSW 1mph /  1.6km/h 4mph /  6.4km/h 77% 0in /  0.0mm 0.00 W/m2 CLR
01:25 74.8 °F /  23.8 °C 66 °F /  18.9 °C 29.9in /  1012.1hPa Calm   1mph /  1.6km/h 74% 0in /  0.0mm 0.00 W/m2 CLR
01:30 74.7 °F /  23.7 °C 65.8 °F /  18.8 °C 29.9in /  1012.1hPa Calm   1mph /  1.6km/h 74% 0in /  0.0mm 0.00 W/m2 CLR
01:35 74.7 °F /  23.7 °C 65.8 °F /  18.8 °C 29.9in /  1012.2hPa WSW 1mph /  1.6km/h 2mph /  3.2km/h 74% 0in /  0.0mm 0.00 W/m2 CLR
01:40 74.7 °F /  23.7 °C 66 °F /  18.9 °C 29.9in /  1012.2hPa WSW 1mph /  1.6km/h 3mph /  4.8km/h 75% 0in /  0.0mm 0.00 W/m2 CLR
01:50 74.7 °F /  23.7 °C 66.6 °F /  19.2 °C 29.9in /  1012.3hPa Calm   2mph /  3.2km/h 76% 0in /  0.0mm 0.00 W/m2 CLR
01:55 74.7 °F /  23.7 °C 66.6 °F /  19.2 °C 29.9in /  1012.3hPa Calm   2mph /  3.2km/h 76% 0in /  0.0mm 0.00 W/m2 CLR
02:00 74.7 °F /  23.7 °C 66.6 °F /  19.2 °C 29.9in /  1012.3hPa Calm     76% 0in /  0.0mm 0.00 W/m2 CLR
02:05 74.7 °F /  23.7 °C 66.6 °F /  19.2 °C 29.9in /  1012.3hPa Calm     76% 0in /  0.0mm 0.00 W/m2 CLR
02:10 74.7 °F /  23.7 °C 66.9 °F /  19.4 °C 29.9in /  1012.2hPa WSW 1mph /  1.6km/h 1mph /  1.6km/h 77% 0in /  0.0mm 0.00 W/m2 CLR
02:15 74.5 °F /  23.6 °C 66.4 °F /  19.1 °C 29.9in /  1012.1hPa WSW 1mph /  1.6km/h 2mph /  3.2km/h 76% 0in /  0.0mm 0.00 W/m2 CLR
02:25 74.1 °F /  23.4 °C 66 °F /  18.9 °C 29.9in /  1012.3hPa West 1mph /  1.6km/h 3mph /  4.8km/h 76% 0in /  0.0mm 0.00 W/m2 CLR
02:30 73.9 °F /  23.3 °C 65.7 °F /  18.7 °C 29.9in /  1012.2hPa West 1mph /  1.6km/h 2mph /  3.2km/h 75% 0in /  0.0mm 0.00 W/m2 CLR
02:40 73.9 °F /  23.3 °C 65.8 °F /  18.8 °C 29.9in /  1012.1hPa West 1mph /  1.6km/h 2mph /  3.2km/h 76% 0in /  0.0mm 0.00 W/m2 CLR
02:45 73.9 °F /  23.3 °C 65.8 °F /  18.8 °C 29.9in /  1012.1hPa West 1mph /  1.6km/h 2mph /  3.2km/h 76% 0in /  0.0mm 0.00 W/m2 CLR
02:50 73.8 °F /  23.2 °C 65.8 °F /  18.8 °C 29.9in /  1012.1hPa WNW 1mph /  1.6km/h 3mph /  4.8km/h 76% 0in /  0.0mm 0.00 W/m2 CLR
02:55 73.8 °F /  23.2 °C 65.7 °F /  18.7 °C 29.9in /  1012.0hPa WNW 1mph /  1.6km/h 2mph /  3.2km/h 76% 0in /  0.0mm 0.00 W/m2 CLR
03:05 73.4 °F /  23.0 °C 64.9 °F /  18.3 °C 29.9in /  1011.9hPa WNW 1mph /  1.6km/h 2mph /  3.2km/h 75% 0in /  0.0mm 0.00 W/m2 CLR
03:10 73.2 °F /  22.9 °C 64.9 °F /  18.3 °C 29.9in /  1011.9hPa WNW 1mph /  1.6km/h 3mph /  4.8km/h 75% 0in /  0.0mm 0.00 W/m2 CLR
03:15 73.2 °F /  22.9 °C 64.9 °F /  18.3 °C 29.9in /  1011.8hPa Calm   2mph /  3.2km/h 75% 0in /  0.0mm 0.00 W/m2 CLR
03:20 73.2 °F /  22.9 °C 64.8 °F /  18.2 °C 29.9in /  1011.8hPa Calm   2mph /  3.2km/h 75% 0in /  0.0mm 0.00 W/m2 CLR
03:25 73.2 °F /  22.9 °C 65.1 °F /  18.4 °C 29.9in /  1011.8hPa Calm   2mph /  3.2km/h 76% 0in /  0.0mm 0.00 W/m2 CLR
03:35 73.2 °F /  22.9 °C 65.1 °F /  18.4 °C 29.9in /  1011.7hPa Calm   1mph /  1.6km/h 76% 0in /  0.0mm 0.00 W/m2 CLR
03:40 73 °F /  22.8 °C 65.5 °F /  18.6 °C 29.9in /  1011.6hPa WNW 1mph /  1.6km/h 2mph /  3.2km/h 77% 0in /  0.0mm 0.00 W/m2 CLR
03:45 73.2 °F /  22.9 °C 65.8 °F /  18.8 °C 29.9in /  1011.4hPa WNW 2mph /  3.2km/h 3mph /  4.8km/h 78% 0in /  0.0mm 0.00 W/m2 CLR
03:50 73.2 °F /  22.9 °C 66.4 °F /  19.1 °C 29.9in /  1011.4hPa Calm   3mph /  4.8km/h 79% 0in /  0.0mm 0.00 W/m2 CLR
03:55 73.4 °F /  23.0 °C 66.6 °F /  19.2 °C 29.9in /  1011.4hPa Calm     79% 0in /  0.0mm 0.00 W/m2 CLR
04:00 73.4 °F /  23.0 °C 66.6 °F /  19.2 °C 29.9in /  1011.4hPa Calm     79% 0in /  0.0mm 0.00 W/m2 CLR
04:10 73.4 °F /  23.0 °C 66.6 °F /  19.2 °C 29.9in /  1011.4hPa WNW 1mph /  1.6km/h 2mph /  3.2km/h 79% 0in /  0.0mm 0.00 W/m2 CLR
04:15 73.2 °F /  22.9 °C 66 °F /  18.9 °C 29.9in /  1011.4hPa WNW 1mph /  1.6km/h 2mph /  3.2km/h 78% 0in /  0.0mm 0.00 W/m2 CLR
04:25 73 °F /  22.8 °C 65.5 °F /  18.6 °C 29.9in /  1011.4hPa WNW 1mph /  1.6km/h 2mph /  3.2km/h 77% 0in /  0.0mm 0.00 W/m2 CLR
04:30 72.9 °F /  22.7 °C 64.8 °F /  18.2 °C 29.9in /  1011.4hPa WNW 1mph /  1.6km/h 2mph /  3.2km/h 76% 0in /  0.0mm 0.00 W/m2 CLR
04:40 72.7 °F /  22.6 °C 64.8 °F /  18.2 °C 29.9in /  1011.4hPa WNW 1mph /  1.6km/h 3mph /  4.8km/h 76% 0in /  0.0mm 0.00 W/m2 CLR
04:45 72.9 °F /  22.7 °C 64.8 °F /  18.2 °C 29.9in /  1011.5hPa WNW 1mph /  1.6km/h 3mph /  4.8km/h 76% 0in /  0.0mm 0.00 W/m2 CLR
04:55 72.9 °F /  22.7 °C 64.8 °F /  18.2 °C 29.9in /  1011.4hPa NW 1mph /  1.6km/h 3mph /  4.8km/h 76% 0in /  0.0mm 0.00 W/m2 CLR
05:05 72.7 °F /  22.6 °C 65.1 °F /  18.4 °C 29.9in /  1011.4hPa Calm   2mph /  3.2km/h 77% 0in /  0.0mm 0.00 W/m2 CLR
05:10 72.7 °F /  22.6 °C 64.9 °F /  18.3 °C 29.9in /  1011.4hPa Calm   3mph /  4.8km/h 77% 0in /  0.0mm 0.00 W/m2 CLR
05:15 72.7 °F /  22.6 °C 64.9 °F /  18.3 °C 29.9in /  1011.4hPa Calm   2mph /  3.2km/h 77% 0in /  0.0mm 0.00 W/m2 CLR
05:25 72.7 °F /  22.6 °C 64.9 °F /  18.3 °C 29.9in /  1011.3hPa NW 1mph /  1.6km/h 2mph /  3.2km/h 77% 0in /  0.0mm 0.00 W/m2 CLR
05:35 72.7 °F /  22.6 °C 65.3 °F /  18.5 °C 29.9in /  1011.3hPa NW 1mph /  1.6km/h 2mph /  3.2km/h 78% 0in /  0.0mm 0.00 W/m2 CLR
05:40 72.7 °F /  22.6 °C 65.3 °F /  18.5 °C 29.9in /  1011.3hPa NW 1mph /  1.6km/h 2mph /  3.2km/h 78% 0in /  0.0mm 0.00 W/m2 CLR
05:45 72.7 °F /  22.6 °C 65.7 °F /  18.7 °C 29.9in /  1011.3hPa Calm   1mph /  1.6km/h 79% 0in /  0.0mm 0.00 W/m2 CLR
05:50 72.7 °F /  22.6 °C 65.7 °F /  18.7 °C 29.9in /  1011.3hPa NW 1mph /  1.6km/h 2mph /  3.2km/h 79% 0in /  0.0mm 0.00 W/m2 CLR
05:55 72.5 °F /  22.5 °C 65.7 °F /  18.7 °C 29.9in /  1011.3hPa NW 1mph /  1.6km/h 2mph /  3.2km/h 79% 0in /  0.0mm 0.00 W/m2 CLR
06:00 72.5 °F /  22.5 °C 65.7 °F /  18.7 °C 29.9in /  1011.4hPa NW 1mph /  1.6km/h 2mph /  3.2km/h 79% 0in /  0.0mm 0.00 W/m2 CLR
06:10 72.1 °F /  22.3 °C 64.9 °F /  18.3 °C 29.9in /  1011.4hPa NW 1mph /  1.6km/h 2mph /  3.2km/h 78% 0in /  0.0mm 0.00 W/m2 CLR
06:20 72 °F /  22.2 °C 64.8 °F /  18.2 °C 29.9in /  1011.4hPa NW 1mph /  1.6km/h 2mph /  3.2km/h 78% 0in /  0.0mm 0.00 W/m2 OVC
06:25 72 °F /  22.2 °C 64.8 °F /  18.2 °C 29.9in /  1011.4hPa Calm   2mph /  3.2km/h 78% 0in /  0.0mm 0.00 W/m2 OVC
06:30 72 °F /  22.2 °C 64.8 °F /  18.2 °C 29.9in /  1011.4hPa Calm     78% 0in /  0.0mm 0.00 W/m2 OVC
06:35 72 °F /  22.2 °C 64.8 °F /  18.2 °C 29.9in /  1011.4hPa Calm     78% 0in /  0.0mm 0.00 W/m2 OVC
06:40 72 °F /  22.2 °C 65.1 °F /  18.4 °C 29.9in /  1011.4hPa Calm     79% 0in /  0.0mm 0.00 W/m2 OVC
06:45 72 °F /  22.2 °C 65.1 °F /  18.4 °C 29.9in /  1011.5hPa Calm     79% 0in /  0.0mm 0.00 W/m2 OVC
06:50 72 °F /  22.2 °C 65.1 °F /  18.4 °C 29.9in /  1011.5hPa Calm     79% 0in /  0.0mm 0.00 W/m2 OVC
06:55 72 °F /  22.2 °C 64.9 °F /  18.3 °C 29.9in /  1011.5hPa Calm   1mph /  1.6km/h 79% 0in /  0.0mm 8.40 W/m2 CLR
07:05 71.8 °F /  22.1 °C 64.6 °F /  18.1 °C 29.9in /  1011.6hPa NW 1mph /  1.6km/h 3mph /  4.8km/h 78% 0in /  0.0mm 16.80 W/m2 SCT
07:15 71.6 °F /  22.0 °C 64.4 °F /  18.0 °C 29.9in /  1011.6hPa NNW 1mph /  1.6km/h 2mph /  3.2km/h 78% 0in /  0.0mm 27.60 W/m2 SCT
07:20 71.6 °F /  22.0 °C 64.4 °F /  18.0 °C 29.9in /  1011.7hPa NW 1mph /  1.6km/h 3mph /  4.8km/h 78% 0in /  0.0mm 33.60 W/m2 SCT
07:25 71.6 °F /  22.0 °C 64.4 °F /  18.0 °C 29.9in /  1011.7hPa NW 1mph /  1.6km/h 2mph /  3.2km/h 78% 0in /  0.0mm 42.00 W/m2 SCT
07:30 71.6 °F /  22.0 °C 64.4 °F /  18.0 °C 29.9in /  1011.8hPa Calm   2mph /  3.2km/h 78% 0in /  0.0mm 52.80 W/m2 SCT
07:35 71.6 °F /  22.0 °C 64.4 °F /  18.0 °C 29.9in /  1011.8hPa Calm     78% 0in /  0.0mm 63.60 W/m2 SCT
07:40 71.6 °F /  22.0 °C 64.4 °F /  18.0 °C 29.9in /  1011.8hPa Calm     78% 0in /  0.0mm 75.60 W/m2 FEW
07:50 72 °F /  22.2 °C 65.1 °F /  18.4 °C 29.9in /  1011.9hPa Calm     79% 0in /  0.0mm 108.00 W/m2 FEW
07:55 72.1 °F /  22.3 °C 65.3 °F /  18.5 °C 29.9in /  1011.9hPa Calm     79% 0in /  0.0mm 124.80 W/m2 CLR
08:05 72.7 °F /  22.6 °C 65.7 °F /  18.7 °C 29.9in /  1012.1hPa Calm     79% 0in /  0.0mm 160.80 W/m2 CLR
08:10 72.9 °F /  22.7 °C 66 °F /  18.9 °C 29.9in /  1012.2hPa Calm   2mph /  3.2km/h 79% 0in /  0.0mm 181.20 W/m2 CLR
08:15 73 °F /  22.8 °C 66.2 °F /  19.0 °C 29.9in /  1012.2hPa Calm   2mph /  3.2km/h 79% 0in /  0.0mm 200.40 W/m2 CLR
08:25 73.8 °F /  23.2 °C 66.4 °F /  19.1 °C 29.9in /  1012.3hPa NNW 1mph /  1.6km/h 2mph /  3.2km/h 78% 0in /  0.0mm 240.00 W/m2 CLR
08:35 74.5 °F /  23.6 °C 66 °F /  18.9 °C 29.9in /  1012.4hPa NNW 2mph /  3.2km/h 4mph /  6.4km/h 75% 0in /  0.0mm 274.80 W/m2 CLR
08:40 75 °F /  23.9 °C 66.2 °F /  19.0 °C 29.9in /  1012.5hPa North 1mph /  1.6km/h 4mph /  6.4km/h 74% 0in /  0.0mm 292.80 W/m2 CLR
08:45 75.6 °F /  24.2 °C 66.2 °F /  19.0 °C 29.9in /  1012.5hPa NNW 2mph /  3.2km/h 3mph /  4.8km/h 73% 0in /  0.0mm 312.00 W/m2 CLR
08:50 76.1 °F /  24.5 °C 66.4 °F /  19.1 °C 29.9in /  1012.5hPa NNW 1mph /  1.6km/h 3mph /  4.8km/h 72% 0in /  0.0mm 331.20 W/m2 CLR
08:55 76.8 °F /  24.9 °C 67.8 °F /  19.9 °C 29.9in /  1012.4hPa NNE 2mph /  3.2km/h 4mph /  6.4km/h 74% 0in /  0.0mm 352.80 W/m2 CLR
09:00 77.7 °F /  25.4 °C 68.4 °F /  20.2 °C 29.9in /  1012.4hPa NE 1mph /  1.6km/h 4mph /  6.4km/h 73% 0in /  0.0mm 369.60 W/m2 CLR
09:05 78.3 °F /  25.7 °C 69.1 °F /  20.6 °C 29.9in /  1012.4hPa NE 1mph /  1.6km/h 3mph /  4.8km/h 73% 0in /  0.0mm 387.60 W/m2 CLR
09:15 79.2 °F /  26.2 °C 69.1 °F /  20.6 °C 29.9in /  1012.5hPa East 1mph /  1.6km/h 3mph /  4.8km/h 71% 0in /  0.0mm 420.00 W/m2 CLR
09:20 79.9 °F /  26.6 °C 69.3 °F /  20.7 °C 29.9in /  1012.5hPa ESE 1mph /  1.6km/h 4mph /  6.4km/h 70% 0in /  0.0mm 442.80 W/m2 CLR
09:25 80.2 °F /  26.8 °C 69.1 °F /  20.6 °C 29.9in /  1012.6hPa Calm   4mph /  6.4km/h 69% 0in /  0.0mm 459.60 W/m2 CLR
09:30 80.4 °F /  26.9 °C 69.4 °F /  20.8 °C 29.9in /  1012.7hPa NE 1mph /  1.6km/h 3mph /  4.8km/h 69% 0in /  0.0mm 481.20 W/m2 CLR
09:35 80.8 °F /  27.1 °C 69.6 °F /  20.9 °C 29.9in /  1012.8hPa North 2mph /  3.2km/h 5mph /  8.0km/h 69% 0in /  0.0mm 500.40 W/m2 CLR
09:40 81.1 °F /  27.3 °C 70 °F /  21.1 °C 29.9in /  1012.8hPa North 3mph /  4.8km/h 7mph /  11.3km/h 69% 0in /  0.0mm 520.80 W/m2 CLR
09:45 81.5 °F /  27.5 °C 70 °F /  21.1 °C 29.9in /  1012.9hPa SE 3mph /  4.8km/h 5mph /  8.0km/h 68% 0in /  0.0mm 535.20 W/m2 CLR
09:50 81.7 °F /  27.6 °C 69.6 °F /  20.9 °C 29.9in /  1012.9hPa SE 2mph /  3.2km/h 6mph /  9.7km/h 67% 0in /  0.0mm 559.20 W/m2 CLR
09:55 81.9 °F /  27.7 °C 70 °F /  21.1 °C 29.9in /  1013.0hPa ESE 3mph /  4.8km/h 7mph /  11.3km/h 67% 0in /  0.0mm 576.00 W/m2 CLR
10:05 82 °F /  27.8 °C 69.6 °F /  20.9 °C 29.9in /  1012.8hPa ESE 3mph /  4.8km/h 7mph /  11.3km/h 66% 0in /  0.0mm 615.60 W/m2 CLR
10:15 81.9 °F /  27.7 °C 69.4 °F /  20.8 °C 29.9in /  1012.9hPa SSE 2mph /  3.2km/h 7mph /  11.3km/h 66% 0in /  0.0mm 649.20 W/m2 CLR
10:20 81.9 °F /  27.7 °C 70 °F /  21.1 °C 29.9in /  1013.0hPa South 5mph /  8.0km/h 9mph /  14.5km/h 67% 0in /  0.0mm 668.40 W/m2 CLR
10:30 82.4 °F /  28.0 °C 70.3 °F /  21.3 °C 29.9in /  1013.1hPa South 2mph /  3.2km/h 5mph /  8.0km/h 67% 0in /  0.0mm 704.40 W/m2 CLR
10:35 82.8 °F /  28.2 °C 70.3 °F /  21.3 °C 29.9in /  1013.0hPa South 2mph /  3.2km/h 8mph /  12.9km/h 66% 0in /  0.0mm 732.00 W/m2 CLR
10:40 83.1 °F /  28.4 °C 70.5 °F /  21.4 °C 29.9in /  1013.0hPa SSE 2mph /  3.2km/h 6mph /  9.7km/h 66% 0in /  0.0mm 746.40 W/m2 CLR
10:45 83.5 °F /  28.6 °C 70.9 °F /  21.6 °C 29.9in /  1013.0hPa SSE 3mph /  4.8km/h 8mph /  12.9km/h 66% 0in /  0.0mm 763.20 W/m2 CLR
10:55 83.1 °F /  28.4 °C 70.2 °F /  21.2 °C 29.9in /  1013.1hPa SSE 5mph /  8.0km/h 9mph /  14.5km/h 65% 0in /  0.0mm 790.80 W/m2 CLR
11:00 83.1 °F /  28.4 °C 70.2 °F /  21.2 °C 29.9in /  1013.1hPa SE 3mph /  4.8km/h 8mph /  12.9km/h 65% 0in /  0.0mm 807.60 W/m2 CLR
11:05 83.7 °F /  28.7 °C 70.2 °F /  21.2 °C 29.9in /  1013.2hPa SE 2mph /  3.2km/h 6mph /  9.7km/h 64% 0in /  0.0mm 831.60 W/m2 CLR
11:15 84.4 °F /  29.1 °C 70 °F /  21.1 °C 29.9in /  1013.2hPa ESE 3mph /  4.8km/h 7mph /  11.3km/h 62% 0in /  0.0mm 858.00 W/m2 CLR
11:20 84.4 °F /  29.1 °C 70.3 °F /  21.3 °C 29.9in /  1013.2hPa ESE 5mph /  8.0km/h 9mph /  14.5km/h 63% 0in /  0.0mm 866.40 W/m2 CLR
11:25 84.2 °F /  29.0 °C 69.6 °F /  20.9 °C 29.9in /  1013.2hPa ESE 6mph /  9.7km/h 10mph /  16.1km/h 62% 0in /  0.0mm 884.40 W/m2 CLR
11:35 83.8 °F /  28.8 °C 70 °F /  21.1 °C 29.9in /  1013.3hPa East 3mph /  4.8km/h 9mph /  14.5km/h 63% 0in /  0.0mm 909.60 W/m2 CLR
11:45 83.7 °F /  28.7 °C 70.5 °F /  21.4 °C 29.9in /  1013.3hPa ESE 2mph /  3.2km/h 10mph /  16.1km/h 65% 0in /  0.0mm 936.00 W/m2 CLR
11:55 83.8 °F /  28.8 °C 70.3 °F /  21.3 °C 29.9in /  1013.4hPa SE 5mph /  8.0km/h 10mph /  16.1km/h 64% 0in /  0.0mm 962.40 W/m2 CLR
12:00 83.8 °F /  28.8 °C 70.9 °F /  21.6 °C 29.9in /  1013.4hPa SE 3mph /  4.8km/h 9mph /  14.5km/h 65% 0in /  0.0mm 979.20 W/m2 CLR
12:05 83.7 °F /  28.7 °C 70.5 °F /  21.4 °C 29.9in /  1013.3hPa SE 5mph /  8.0km/h 10mph /  16.1km/h 65% 0in /  0.0mm 991.20 W/m2 CLR
12:10 83.7 °F /  28.7 °C 71.1 °F /  21.7 °C 29.9in /  1013.4hPa SE 3mph /  4.8km/h 10mph /  16.1km/h 66% 0in /  0.0mm 1012.80 W/m2 CLR
12:15 83.8 °F /  28.8 °C 70.3 °F /  21.3 °C 29.9in /  1013.3hPa ESE 5mph /  8.0km/h 9mph /  14.5km/h 64% 0in /  0.0mm 1048.80 W/m2 CLR
12:20 83.8 °F /  28.8 °C 70.9 °F /  21.6 °C 29.9in /  1013.4hPa ESE 5mph /  8.0km/h 9mph /  14.5km/h 65% 0in /  0.0mm 1065.60 W/m2 CLR
12:25 84.2 °F /  29.0 °C 71.6 °F /  22.0 °C 29.9in /  1013.4hPa ESE 5mph /  8.0km/h 9mph /  14.5km/h 66% 0in /  0.0mm 1111.20 W/m2 CLR
12:30 84 °F /  28.9 °C 71.1 °F /  21.7 °C 29.9in /  1013.4hPa SE 3mph /  4.8km/h 9mph /  14.5km/h 65% 0in /  0.0mm 1154.40 W/m2 CLR
12:35 84.4 °F /  29.1 °C 70.9 °F /  21.6 °C 29.9in /  1013.4hPa SE 3mph /  4.8km/h 9mph /  14.5km/h 64% 0in /  0.0mm 1197.60 W/m2 CLR
12:45 84.2 °F /  29.0 °C 71.2 °F /  21.8 °C 29.9in /  1013.4hPa SSE 6mph /  9.7km/h 12mph /  19.3km/h 65% 0in /  0.0mm 1274.40 W/m2 CLR
12:50 84 °F /  28.9 °C 70.9 °F /  21.6 °C 29.9in /  1013.3hPa South 5mph /  8.0km/h 12mph /  19.3km/h 65% 0in /  0.0mm 1258.80 W/m2 CLR
13:00 84.2 °F /  29.0 °C 71.6 °F /  22.0 °C 29.9in /  1013.3hPa South 5mph /  8.0km/h 14mph /  22.5km/h 66% 0in /  0.0mm 1124.40 W/m2 CLR
13:05 84.6 °F /  29.2 °C 72 °F /  22.2 °C 29.9in /  1013.2hPa South 5mph /  8.0km/h 12mph /  19.3km/h 66% 0in /  0.0mm 1174.80 W/m2 CLR
13:15 84.7 °F /  29.3 °C 71.2 °F /  21.8 °C 29.9in /  1013.2hPa South 3mph /  4.8km/h 12mph /  19.3km/h 64% 0in /  0.0mm 1113.60 W/m2 CLR
13:25 84.7 °F /  29.3 °C 71.2 °F /  21.8 °C 29.9in /  1013.2hPa South 7mph /  11.3km/h 13mph /  20.9km/h 64% 0in /  0.0mm 1124.40 W/m2 CLR
13:35 84.2 °F /  29.0 °C 70.7 °F /  21.5 °C 29.9in /  1013.3hPa South 7mph /  11.3km/h 12mph /  19.3km/h 64% 0in /  0.0mm 1126.80 W/m2 CLR
13:45 84.2 °F /  29.0 °C 70.7 °F /  21.5 °C 29.9in /  1013.2hPa South 6mph /  9.7km/h 12mph /  19.3km/h 64% 0in /  0.0mm 1128.00 W/m2 CLR
13:55 85.5 °F /  29.7 °C 70.9 °F /  21.6 °C 29.9in /  1013.2hPa South 5mph /  8.0km/h 8mph /  12.9km/h 62% 0in /  0.0mm 1143.60 W/m2 CLR
14:05 85.1 °F /  29.5 °C 71.1 °F /  21.7 °C 29.9in /  1013.1hPa South 5mph /  8.0km/h 12mph /  19.3km/h 63% 0in /  0.0mm 1168.80 W/m2 CLR
14:10 84.9 °F /  29.4 °C 70.9 °F /  21.6 °C 29.9in /  1013.1hPa South 5mph /  8.0km/h 12mph /  19.3km/h 63% 0in /  0.0mm 1188.00 W/m2 CLR
14:15 85.3 °F /  29.6 °C 71.6 °F /  22.0 °C 29.9in /  1013.2hPa South 3mph /  4.8km/h 9mph /  14.5km/h 64% 0in /  0.0mm 1213.20 W/m2 CLR
14:20 85.5 °F /  29.7 °C 71.4 °F /  21.9 °C 29.9in /  1013.1hPa South 5mph /  8.0km/h 15mph /  24.1km/h 63% 0in /  0.0mm 1249.20 W/m2 CLR
14:25 85.5 °F /  29.7 °C 71.4 °F /  21.9 °C 29.9in /  1013.1hPa South 5mph /  8.0km/h 15mph /  24.1km/h 63% 0in /  0.0mm 456.00 W/m2 BKN
14:35 85.1 °F /  29.5 °C 70.5 °F /  21.4 °C 29.9in /  1013.0hPa South 7mph /  11.3km/h 14mph /  22.5km/h 62% 0in /  0.0mm 1202.40 W/m2 CLR
14:40 84.9 °F /  29.4 °C 71.4 °F /  21.9 °C 29.9in /  1013.0hPa South 5mph /  8.0km/h 14mph /  22.5km/h 64% 0in /  0.0mm 1172.40 W/m2 CLR
14:50 84.7 °F /  29.3 °C 70.7 °F /  21.5 °C 29.9in /  1013.0hPa SSW 5mph /  8.0km/h 12mph /  19.3km/h 63% 0in /  0.0mm 1149.60 W/m2 CLR
14:55 84.7 °F /  29.3 °C 70.7 °F /  21.5 °C 29.9in /  1012.9hPa South 6mph /  9.7km/h 14mph /  22.5km/h 63% 0in /  0.0mm 1221.60 W/m2 CLR
15:05 85.3 °F /  29.6 °C 70.2 °F /  21.2 °C 29.9in /  1012.9hPa South 6mph /  9.7km/h 14mph /  22.5km/h 61% 0in /  0.0mm 1116.00 W/m2 CLR
15:15 84.9 °F /  29.4 °C 70.3 °F /  21.3 °C 29.9in /  1012.8hPa SSE 6mph /  9.7km/h 13mph /  20.9km/h 62% 0in /  0.0mm 1090.80 W/m2 CLR
15:20 84.7 °F /  29.3 °C 69.8 °F /  21.0 °C 29.9in /  1012.8hPa South 6mph /  9.7km/h 15mph /  24.1km/h 61% 0in /  0.0mm 1086.00 W/m2 CLR
15:25 84.7 °F /  29.3 °C 70.2 °F /  21.2 °C 29.9in /  1012.8hPa SSE 7mph /  11.3km/h 14mph /  22.5km/h 62% 0in /  0.0mm 1075.20 W/m2 CLR
15:30 85.1 °F /  29.5 °C 71.1 °F /  21.7 °C 29.9in /  1012.7hPa SSE 6mph /  9.7km/h 16mph /  25.7km/h 63% 0in /  0.0mm 1069.20 W/m2 CLR
15:35 85.3 °F /  29.6 °C 70.2 °F /  21.2 °C 29.9in /  1012.7hPa South 5mph /  8.0km/h 14mph /  22.5km/h 61% 0in /  0.0mm 1071.60 W/m2 CLR
15:40 85.3 °F /  29.6 °C 70.3 °F /  21.3 °C 29.9in /  1012.6hPa South 3mph /  4.8km/h 8mph /  12.9km/h 61% 0in /  0.0mm 1052.40 W/m2 CLR
15:45 85.3 °F /  29.6 °C 70.3 °F /  21.3 °C 29.9in /  1012.6hPa SSE 6mph /  9.7km/h 12mph /  19.3km/h 61% 0in /  0.0mm 1046.40 W/m2 CLR
15:50 85.5 °F /  29.7 °C 70 °F /  21.1 °C 29.9in /  1012.6hPa SSE 6mph /  9.7km/h 12mph /  19.3km/h 60% 0in /  0.0mm 1038.00 W/m2 CLR
15:55 85.6 °F /  29.8 °C 70.2 °F /  21.2 °C 29.9in /  1012.5hPa South 5mph /  8.0km/h 12mph /  19.3km/h 60% 0in /  0.0mm 1027.20 W/m2 CLR
16:05 85.1 °F /  29.5 °C 69.6 °F /  20.9 °C 29.9in /  1012.5hPa SSE 7mph /  11.3km/h 13mph /  20.9km/h 60% 0in /  0.0mm 1005.60 W/m2 CLR
16:10 84.9 °F /  29.4 °C 70 °F /  21.1 °C 29.9in /  1012.5hPa SSE 6mph /  9.7km/h 12mph /  19.3km/h 61% 0in /  0.0mm 991.20 W/m2 CLR
16:20 84.9 °F /  29.4 °C 69.6 °F /  20.9 °C 29.9in /  1012.4hPa SSE 8mph /  12.9km/h 16mph /  25.7km/h 60% 0in /  0.0mm 974.40 W/m2 CLR
16:25 84.7 °F /  29.3 °C 69.8 °F /  21.0 °C 29.9in /  1012.3hPa South 6mph /  9.7km/h 13mph /  20.9km/h 61% 0in /  0.0mm 962.40 W/m2 CLR
16:30 84.7 °F /  29.3 °C 69.6 °F /  20.9 °C 29.9in /  1012.3hPa SSE 5mph /  8.0km/h 16mph /  25.7km/h 61% 0in /  0.0mm 945.60 W/m2 CLR
16:40 84.7 °F /  29.3 °C 70 °F /  21.1 °C 29.9in /  1012.2hPa South 5mph /  8.0km/h 12mph /  19.3km/h 61% 0in /  0.0mm 919.20 W/m2 CLR
16:45 84.6 °F /  29.2 °C 69.3 °F /  20.7 °C 29.9in /  1012.2hPa South 6mph /  9.7km/h 12mph /  19.3km/h 60% 0in /  0.0mm 907.20 W/m2 CLR
16:50 84.6 °F /  29.2 °C 69.3 °F /  20.7 °C 29.9in /  1012.2hPa SSE 7mph /  11.3km/h 14mph /  22.5km/h 60% 0in /  0.0mm 892.80 W/m2 CLR
16:55 84.6 °F /  29.2 °C 69.6 °F /  20.9 °C 29.9in /  1012.1hPa SSE 5mph /  8.0km/h 14mph /  22.5km/h 61% 0in /  0.0mm 877.20 W/m2 CLR
17:05 84.6 °F /  29.2 °C 69.3 °F /  20.7 °C 29.9in /  1012.0hPa South 6mph /  9.7km/h 16mph /  25.7km/h 60% 0in /  0.0mm 849.60 W/m2 CLR
17:15 84.7 °F /  29.3 °C 68.7 °F /  20.4 °C 29.9in /  1012.0hPa SSE 7mph /  11.3km/h 13mph /  20.9km/h 59% 0in /  0.0mm 818.40 W/m2 CLR
17:20 84.7 °F /  29.3 °C 69.4 °F /  20.8 °C 29.9in /  1011.8hPa SSE 7mph /  11.3km/h 12mph /  19.3km/h 60% 0in /  0.0mm 804.00 W/m2 CLR
17:25 84.7 °F /  29.3 °C 68.7 °F /  20.4 °C 29.9in /  1011.9hPa South 6mph /  9.7km/h 14mph /  22.5km/h 59% 0in /  0.0mm 790.80 W/m2 CLR
17:30 84.6 °F /  29.2 °C 69.6 °F /  20.9 °C 29.9in /  1011.8hPa South 7mph /  11.3km/h 13mph /  20.9km/h 61% 0in /  0.0mm 774.00 W/m2 CLR
17:35 84.6 °F /  29.2 °C 69.6 °F /  20.9 °C 29.9in /  1011.8hPa South 7mph /  11.3km/h 13mph /  20.9km/h 61% 0in /  0.0mm 762.00 W/m2 CLR
17:40 84.7 °F /  29.3 °C 69.3 °F /  20.7 °C 29.9in /  1011.8hPa South 6mph /  9.7km/h 12mph /  19.3km/h 60% 0in /  0.0mm 748.80 W/m2 CLR
17:50 85.5 °F /  29.7 °C 70 °F /  21.1 °C 29.9in /  1011.7hPa SSE 6mph /  9.7km/h 12mph /  19.3km/h 60% 0in /  0.0mm 710.40 W/m2 CLR
17:55 84.9 °F /  29.4 °C 69.6 °F /  20.9 °C 29.9in /  1011.7hPa SSE 5mph /  8.0km/h 14mph /  22.5km/h 60% 0in /  0.0mm 690.00 W/m2 CLR
18:05 84.4 °F /  29.1 °C 68.5 °F /  20.3 °C 29.9in /  1011.6hPa South 5mph /  8.0km/h 14mph /  22.5km/h 59% 0in /  0.0mm 657.60 W/m2 CLR
18:10 84.6 °F /  29.2 °C 69.1 °F /  20.6 °C 29.9in /  1011.5hPa South 6mph /  9.7km/h 12mph /  19.3km/h 60% 0in /  0.0mm 637.20 W/m2 CLR
18:15 84.6 °F /  29.2 °C 69.1 °F /  20.6 °C 29.9in /  1011.5hPa SSE 7mph /  11.3km/h 14mph /  22.5km/h 60% 0in /  0.0mm 624.00 W/m2 CLR
18:25 84.2 °F /  29.0 °C 68.7 °F /  20.4 °C 29.9in /  1011.5hPa SSE 6mph /  9.7km/h 12mph /  19.3km/h 60% 0in /  0.0mm 586.80 W/m2 CLR
18:30 83.8 °F /  28.8 °C 68.5 °F /  20.3 °C 29.9in /  1011.5hPa SSE 7mph /  11.3km/h 12mph /  19.3km/h 60% 0in /  0.0mm 567.60 W/m2 CLR
18:40 83.5 °F /  28.6 °C 68.7 °F /  20.4 °C 29.9in /  1011.5hPa South 8mph /  12.9km/h 15mph /  24.1km/h 61% 0in /  0.0mm 526.80 W/m2 CLR
18:45 83.1 °F /  28.4 °C 68.7 °F /  20.4 °C 29.9in /  1011.4hPa SSE 3mph /  4.8km/h 14mph /  22.5km/h 62% 0in /  0.0mm 508.80 W/m2 CLR
18:50 82.9 °F /  28.3 °C 68.5 °F /  20.3 °C 29.9in /  1011.4hPa South 7mph /  11.3km/h 15mph /  24.1km/h 62% 0in /  0.0mm 492.00 W/m2 CLR
18:55 82.9 °F /  28.3 °C 68.5 °F /  20.3 °C 29.9in /  1011.4hPa SSE 7mph /  11.3km/h 13mph /  20.9km/h 62% 0in /  0.0mm 472.80 W/m2 CLR
19:00 82.9 °F /  28.3 °C 69.1 °F /  20.6 °C 29.9in /  1011.4hPa South 3mph /  4.8km/h 14mph /  22.5km/h 63% 0in /  0.0mm 453.60 W/m2 CLR
19:10 82.8 °F /  28.2 °C 68.9 °F /  20.5 °C 29.9in /  1011.3hPa SSE 5mph /  8.0km/h 12mph /  19.3km/h 63% 0in /  0.0mm 411.60 W/m2 CLR
19:20 82.2 °F /  27.9 °C 68.9 °F /  20.5 °C 29.9in /  1011.3hPa South 5mph /  8.0km/h 13mph /  20.9km/h 64% 0in /  0.0mm 375.60 W/m2 CLR
19:30 81.9 °F /  27.7 °C 68.5 °F /  20.3 °C 29.9in /  1011.3hPa South 3mph /  4.8km/h 12mph /  19.3km/h 64% 0in /  0.0mm 334.80 W/m2 CLR
19:40 81.9 °F /  27.7 °C 68.7 °F /  20.4 °C 29.9in /  1011.3hPa South 6mph /  9.7km/h 15mph /  24.1km/h 65% 0in /  0.0mm 297.60 W/m2 CLR
19:45 81.5 °F /  27.5 °C 68.5 °F /  20.3 °C 29.9in /  1011.3hPa South 6mph /  9.7km/h 14mph /  22.5km/h 65% 0in /  0.0mm 276.00 W/m2 CLR
19:50 81.3 °F /  27.4 °C 68.9 °F /  20.5 °C 29.9in /  1011.3hPa South 8mph /  12.9km/h 14mph /  22.5km/h 66% 0in /  0.0mm 255.60 W/m2 CLR
20:00 81 °F /  27.2 °C 68.5 °F /  20.3 °C 29.9in /  1011.4hPa SSE 7mph /  11.3km/h 12mph /  19.3km/h 66% 0in /  0.0mm 217.20 W/m2 CLR
20:05 80.8 °F /  27.1 °C 68.7 °F /  20.4 °C 29.9in /  1011.4hPa South 5mph /  8.0km/h 14mph /  22.5km/h 67% 0in /  0.0mm 194.40 W/m2 CLR
20:15 80.2 °F /  26.8 °C 68.7 °F /  20.4 °C 29.9in /  1011.5hPa South 3mph /  4.8km/h 12mph /  19.3km/h 68% 0in /  0.0mm 150.00 W/m2 CLR
20:20 80.2 °F /  26.8 °C 68.4 °F /  20.2 °C 29.9in /  1011.5hPa South 6mph /  9.7km/h 12mph /  19.3km/h 67% 0in /  0.0mm 126.00 W/m2 CLR
20:25 80.1 °F /  26.7 °C 68.2 °F /  20.1 °C 29.9in /  1011.5hPa South 7mph /  11.3km/h 14mph /  22.5km/h 67% 0in /  0.0mm 108.00 W/m2 CLR
20:30 79.9 °F /  26.6 °C 67.5 °F /  19.7 °C 29.9in /  1011.6hPa SSE 3mph /  4.8km/h 12mph /  19.3km/h 66% 0in /  0.0mm 92.40 W/m2 CLR
20:35 79.7 °F /  26.5 °C 67.8 °F /  19.9 °C 29.9in /  1011.7hPa South 5mph /  8.0km/h 10mph /  16.1km/h 67% 0in /  0.0mm 36.00 W/m2 BKN
20:40 79.3 °F /  26.3 °C 67.5 °F /  19.7 °C 29.9in /  1011.7hPa South 7mph /  11.3km/h 13mph /  20.9km/h 67% 0in /  0.0mm 33.60 W/m2 BKN
20:50 79.2 °F /  26.2 °C 67.6 °F /  19.8 °C 29.9in /  1011.8hPa South 5mph /  8.0km/h 8mph /  12.9km/h 68% 0in /  0.0mm 25.20 W/m2 BKN
20:55 79 °F /  26.1 °C 67.5 °F /  19.7 °C 29.9in /  1011.8hPa South 2mph /  3.2km/h 14mph /  22.5km/h 68% 0in /  0.0mm 22.80 W/m2 BKN
21:00 78.6 °F /  25.9 °C 67.3 °F /  19.6 °C 29.9in /  1011.7hPa South 6mph /  9.7km/h 12mph /  19.3km/h 68% 0in /  0.0mm 19.20 W/m2 SCT
21:05 78.4 °F /  25.8 °C 67.5 °F /  19.7 °C 29.9in /  1011.8hPa South 3mph /  4.8km/h 9mph /  14.5km/h 69% 0in /  0.0mm 14.40 W/m2 SCT
21:10 78.4 °F /  25.8 °C 67.5 °F /  19.7 °C 29.9in /  1011.8hPa South 6mph /  9.7km/h 10mph /  16.1km/h 69% 0in /  0.0mm 13.20 W/m2 FEW
21:15 78.3 °F /  25.7 °C 67.6 °F /  19.8 °C 29.9in /  1011.9hPa South 7mph /  11.3km/h 14mph /  22.5km/h 70% 0in /  0.0mm 8.40 W/m2 FEW
21:20 78.1 °F /  25.6 °C 67.5 °F /  19.7 °C 29.9in /  1011.9hPa South 5mph /  8.0km/h 10mph /  16.1km/h 70% 0in /  0.0mm 6.00 W/m2 CLR
21:30 77.7 °F /  25.4 °C 67.6 °F /  19.8 °C 29.9in /  1011.8hPa South 6mph /  9.7km/h 12mph /  19.3km/h 71% 0in /  0.0mm 0.00 W/m2 OVC
21:35 77.7 °F /  25.4 °C 67.6 °F /  19.8 °C 29.9in /  1011.8hPa South 3mph /  4.8km/h 12mph /  19.3km/h 71% 0in /  0.0mm 0.00 W/m2 OVC
21:40 77.5 °F /  25.3 °C 67.5 °F /  19.7 °C 29.9in /  1011.8hPa South 6mph /  9.7km/h 10mph /  16.1km/h 71% 0in /  0.0mm 0.00 W/m2 OVC
21:45 77.5 °F /  25.3 °C 67.5 °F /  19.7 °C 29.9in /  1012.0hPa South 6mph /  9.7km/h 12mph /  19.3km/h 71% 0in /  0.0mm 0.00 W/m2 OVC
21:55 77.5 °F /  25.3 °C 67.8 °F /  19.9 °C 29.9in /  1012.1hPa South 6mph /  9.7km/h 12mph /  19.3km/h 72% 0in /  0.0mm 0.00 W/m2 CLR
Juneau County Weather
Compliments of Weather Underground - 10 mb

past weather